Time;durP1;ratioP1;P1;durP2;ratioP2;P2;SDS_P1;SDS_P2;PMS_P1;PMS_P2;Temp;Humidity;BMP_temperature;BMP_pressure;BME280_temperature;BME280_humidity;BME280_pressure;Samples;Min_cycle;Max_cycle;Signal;HPM_P1;HPM_P2
2023/06/24 00:03:18;;;;;;;927.22;846.90;;;;;;;18.29;75.86;101777.13;15783372;28;20047;-53
2023/06/24 00:10:51;;;;;;;870.13;798.28;;;;;;;18.14;75.53;101789.50;15807193;28;20082;-54
2023/06/24 00:18:29;;;;;;;914.28;834.70;;;;;;;18.08;75.60;101797.53;15799224;28;20469;-57
2023/06/24 00:26:02;;;;;;;889.97;815.40;;;;;;;17.98;75.45;101802.72;15784393;28;20055;-57
2023/06/24 00:33:37;;;;;;;902.25;826.78;;;;;;;17.72;76.26;101812.09;15797191;28;20498;-54
2023/06/24 00:41:09;;;;;;;883.97;810.15;;;;;;;17.72;75.80;101813.94;15778545;28;20446;-50
2023/06/24 00:48:46;;;;;;;880.53;806.00;;;;;;;17.66;75.67;101817.59;15759971;28;20051;-54
2023/06/24 00:56:22;;;;;;;921.85;844.10;;;;;;;17.48;76.06;101822.00;15757744;28;20126;-55
2023/06/24 01:03:56;;;;;;;874.03;801.42;;;;;;;17.24;76.97;101818.34;15781659;28;20044;-55
2023/06/24 01:11:31;;;;;;;872.78;800.70;;;;;;;17.09;78.05;101807.91;15804859;28;20040;-52
2023/06/24 01:19:24;;;;;;;863.25;792.78;;;;;;;17.37;77.07;101811.13;15763033;28;20056;-53
2023/06/24 01:27:25;;;;;;;847.42;778.95;;;;;;;17.16;76.56;101799.69;15799681;28;20048;-50
2023/06/24 01:35:03;;;;;;;812.30;745.38;;;;;;;16.92;78.09;101806.03;15758952;28;20101;-57
2023/06/24 01:42:39;;;;;;;861.70;791.20;;;;;;;16.79;77.55;101802.44;15776966;28;20051;-57
2023/06/24 01:50:23;;;;;;;819.00;751.10;;;;;;;16.68;77.79;101800.41;15792576;28;20052;-55
2023/06/24 01:57:58;;;;;;;848.65;780.00;;;;;;;16.47;78.79;101798.16;15793187;28;20095;-54
2023/06/24 02:05:34;;;;;;;819.13;751.13;;;;;;;16.36;79.51;101809.69;15772769;28;20137;-57
2023/06/24 02:13:09;;;;;;;841.70;772.47;;;;;;;16.28;79.60;101806.25;15795859;28;20044;-57
2023/06/24 02:20:44;;;;;;;848.67;778.95;;;;;;;16.01;80.05;101788.56;15787668;28;20044;-54
2023/06/24 02:28:19;;;;;;;868.42;795.25;;;;;;;16.12;78.83;101795.94;15772502;28;20052;-58
2023/06/24 02:35:53;;;;;;;851.92;781.58;;;;;;;15.99;79.17;101799.63;15768351;28;20059;-55
2023/06/24 02:43:26;;;;;;;878.03;804.67;;;;;;;16.11;77.78;101807.00;15767999;28;20170;-55
2023/06/24 02:51:01;;;;;;;918.40;840.45;;;;;;;16.03;77.86;101819.75;15799982;28;20051;-54
2023/06/24 02:58:38;;;;;;;883.70;809.70;;;;;;;15.78;78.32;101824.31;15764786;28;20055;-56
2023/06/24 03:06:17;;;;;;;888.53;813.38;;;;;;;16.07;76.52;101828.28;15786408;28;20093;-57
2023/06/24 03:13:52;;;;;;;891.90;816.75;;;;;;;15.64;77.45;101834.41;15793791;28;20040;-54
2023/06/24 03:21:42;;;;;;;904.30;829.50;;;;;;;15.49;78.73;101845.50;15777028;28;20056;-54
2023/06/24 03:29:19;;;;;;;904.17;828.00;;;;;;;15.77;77.35;101853.28;15765624;28;20055;-55
2023/06/24 03:37:16;;;;;;;887.92;812.80;;;;;;;15.47;77.87;101857.56;15788402;28;20062;-53
2023/06/24 03:44:50;;;;;;;875.60;799.80;;;;;;;16.01;75.95;101854.38;15765573;28;20048;-54
2023/06/24 03:52:24;;;;;;;890.25;816.83;;;;;;;15.73;76.90;101871.00;15761399;28;20052;-51
2023/06/24 03:59:57;;;;;;;848.55;780.83;;;;;;;16.00;76.41;101870.84;15777491;28;20408;-51
2023/06/24 04:07:31;;;;;;;869.60;798.25;;;;;;;16.01;76.55;101869.78;15767260;28;20095;-56
2023/06/24 04:15:05;;;;;;;871.50;799.40;;;;;;;15.79;77.04;101863.88;15772126;28;20135;-54
2023/06/24 04:22:42;;;;;;;852.47;784.40;;;;;;;15.86;77.20;101880.94;15781482;28;20134;-53
2023/06/24 04:30:16;;;;;;;788.35;724.83;;;;;;;15.82;78.39;101885.13;15784394;28;20043;-53
2023/06/24 04:37:50;;;;;;;;;;;;;;;15.73;78.21;101887.25;15779818;28;20048;-52
2023/06/24 04:45:24;;;;;;;807.08;742.75;;;;;;;16.01;77.92;101894.16;15762773;28;19924;-54
2023/06/24 04:52:58;;;;;;;829.30;762.10;;;;;;;16.44;77.01;101893.44;15758735;28;20420;-50
2023/06/24 05:00:31;;;;;;;858.78;789.08;;;;;;;16.01;79.33;101902.28;15792887;28;20403;-50
2023/06/24 05:08:05;;;;;;;876.35;803.00;;;;;;;16.33;78.92;101905.81;15765192;28;20097;-53
2023/06/24 05:15:39;;;;;;;914.05;834.78;;;;;;;16.76;76.69;101905.06;15786929;28;20124;-53
2023/06/24 05:23:13;;;;;;;945.53;861.50;;;;;;;16.68;77.55;101908.84;15770145;28;20040;-57
2023/06/24 05:30:47;;;;;;;991.05;899.10;;;;;;;17.04;76.79;101907.31;15810183;28;20365;-55
2023/06/24 05:38:21;;;;;;;986.65;890.80;;;;;;;16.80;76.68;101922.56;15772451;28;20071;-51
2023/06/24 05:45:54;;;;;;;1041.47;940.88;;;;;;;17.31;75.84;101918.69;15790656;28;20039;-53
2023/06/24 05:53:28;;;;;;;1010.30;914.35;;;;;;;16.94;75.83;101928.69;15785754;28;20044;-52
2023/06/24 06:01:01;;;;;;;1059.82;948.45;;;;;;;17.01;73.76;101921.31;15802668;28;20481;-54
2023/06/24 06:08:36;;;;;;;995.67;898.70;;;;;;;17.65;74.81;101917.22;15791958;28;20268;-53
2023/06/24 06:16:09;;;;;;;1015.05;913.80;;;;;;;18.11;72.83;101923.94;15794907;28;20036;-52
2023/06/24 06:23:43;;;;;;;1085.78;974.10;;;;;;;17.96;71.57;101923.56;15788866;28;20086;-51
2023/06/24 06:31:16;;;;;;;912.50;832.17;;;;;;;18.31;72.84;101924.47;15791186;28;20476;-56
2023/06/24 06:38:51;;;;;;;906.40;823.80;;;;;;;18.73;71.11;101929.06;15802927;28;20059;-51
2023/06/24 06:46:24;;;;;;;914.17;833.35;;;;;;;18.79;68.74;101918.09;15785883;28;20496;-55
2023/06/24 06:53:58;;;;;;;607.60;566.17;;;;;;;19.45;68.13;101918.72;15765112;28;20101;-53
2023/06/24 07:01:31;;;;;;;324.30;304.40;;;;;;;19.09;68.33;101923.38;15800253;28;20036;-53
2023/06/24 07:09:05;;;;;;;225.55;212.93;;;;;;;20.26;68.01;101926.81;15795629;28;20055;-56
2023/06/24 07:16:39;;;;;;;180.57;170.48;;;;;;;20.15;66.64;101920.38;15772976;28;20160;-57
2023/06/24 07:24:14;;;;;;;13.35;12.25;;;;;;;19.25;66.96;101934.59;15780125;28;20134;-55
2023/06/24 07:31:47;;;;;;;20.77;19.33;;;;;;;20.10;65.86;101944.81;15802360;28;20119;-55
2023/06/24 07:39:23;;;;;;;13.27;12.23;;;;;;;20.69;63.10;101958.94;15784099;28;20117;-54
2023/06/24 07:46:56;;;;;;;6.85;4.03;;;;;;;21.12;59.91;101949.22;15781489;28;20140;-54
2023/06/24 07:54:30;;;;;;;8.85;3.95;;;;;;;20.90;57.63;101949.19;15777587;28;20086;-56
2023/06/24 08:02:03;;;;;;;5.07;2.55;;;;;;;21.50;58.18;101945.69;15796439;28;20117;-55
2023/06/24 08:09:37;;;;;;;5.75;2.92;;;;;;;21.33;57.86;101953.09;15784893;28;20062;-52
2023/06/24 08:17:10;;;;;;;5.13;2.83;;;;;;;21.06;59.61;101950.22;15801111;28;20478;-56
2023/06/24 08:24:44;;;;;;;6.00;2.83;;;;;;;20.72;59.50;101957.63;15787187;28;20104;-55
2023/06/24 08:32:17;;;;;;;4.60;2.63;;;;;;;20.04;59.97;101959.41;15799146;28;20068;-54
2023/06/24 08:39:51;;;;;;;5.93;2.88;;;;;;;21.52;57.77;101950.91;15782794;28;20056;-54
2023/06/24 08:47:25;;;;;;;5.55;3.13;;;;;;;22.25;55.13;101940.53;15778748;28;20046;-59
2023/06/24 08:55:01;;;;;;;6.00;3.65;;;;;;;22.74;54.18;101956.81;15797145;28;20051;-55
2023/06/24 09:02:37;;;;;;;4.63;2.83;;;;;;;22.32;55.64;101963.00;15782949;28;20044;-56
2023/06/24 09:10:30;;;;;;;5.10;4.15;;;;;;;22.70;53.43;101970.19;15795229;28;20044;-56
2023/06/24 09:18:05;;;;;;;30.08;28.13;;;;;;;22.64;47.81;101965.75;15814384;28;20050;-52
2023/06/24 09:25:39;;;;;;;3.78;1.92;;;;;;;23.14;48.92;101953.56;15815667;28;20044;-55
2023/06/24 09:33:22;;;;;;;5.63;2.35;;;;;;;23.60;48.81;101949.13;15789563;28;20123;-47
2023/06/24 09:41:03;;;;;;;5.10;4.60;;;;;;;23.46;48.14;101949.91;15808452;28;20116;-45
2023/06/24 09:48:36;;;;;;;30.08;28.40;;;;;;;22.35;39.67;101949.66;15770868;28;20155;-45
2023/06/24 09:56:12;;;;;;;9.88;9.30;;;;;;;23.77;47.05;101937.13;15770542;28;20060;-46
2023/06/24 10:03:45;;;;;;;271.90;256.10;;;;;;;23.40;47.39;101924.34;15805719;28;20044;-51
2023/06/24 10:11:23;;;;;;;21.33;20.05;;;;;;;24.15;46.61;101930.34;15810297;28;20040;-50
2023/06/24 10:19:01;;;;;;;683.63;623.67;;;;;;;23.79;45.52;101930.31;15788398;28;20090;-51
2023/06/24 10:26:40;;;;;;;891.50;806.15;;;;;;;24.92;45.81;101933.94;15802907;28;20053;-47
2023/06/24 10:34:24;;;;;;;644.38;595.85;;;;;;;25.31;45.43;101916.81;15802886;28;20047;-48
2023/06/24 10:42:18;;;;;;;1039.50;842.15;;;;;;;25.03;43.07;101916.31;15794799;28;20037;-49
2023/06/24 10:49:53;;;;;;;425.17;397.75;;;;;;;25.19;47.11;101911.66;15772402;28;20497;-51
2023/06/24 10:57:28;;;;;;;1325.05;956.03;;;;;;;26.04;42.09;101896.94;15750405;28;20048;-47
2023/06/24 11:05:03;;;;;;;1746.15;999.90;;;;;;;25.59;43.86;101896.88;15786740;28;20066;-55
2023/06/24 11:12:42;;;;;;;1537.72;974.78;;;;;;;25.87;42.16;101903.63;15814771;28;20357;-53
2023/06/24 11:20:15;;;;;;;1025.97;904.30;;;;;;;26.52;42.39;101891.59;15792925;28;20086;-47
2023/06/24 11:27:51;;;;;;;869.75;793.05;;;;;;;26.28;42.56;101897.00;15794266;28;20055;-48
2023/06/24 11:35:24;;;;;;;1466.00;993.67;;;;;;;26.87;40.23;101877.47;15791854;28;20502;-46
2023/06/24 11:43:01;;;;;;;774.60;712.45;;;;;;;26.94;40.10;101882.63;15790703;28;20042;-54
2023/06/24 11:50:40;;;;;;;966.55;871.92;;;;;;;27.46;42.12;101881.72;15795049;28;20055;-48
2023/06/24 11:58:20;;;;;;;1041.65;913.63;;;;;;;27.23;38.75;101874.31;15778900;28;20139;-48
2023/06/24 12:05:53;;;;;;;1134.07;902.77;;;;;;;27.20;37.61;101880.44;15777570;28;20116;-49
2023/06/24 12:13:27;;;;;;;1404.70;978.42;;;;;;;27.80;36.49;101877.16;15766510;28;20055;-49
2023/06/24 12:21:02;;;;;;;1644.80;998.75;;;;;;;28.21;37.15;101875.41;15782273;28;20056;-50
2023/06/24 12:28:37;;;;;;;1999.90;999.90;;;;;;;27.93;36.80;101868.94;15778933;28;20072;-50
2023/06/24 12:36:09;;;;;;;1999.90;999.90;;;;;;;27.41;35.45;101859.72;15779505;28;20047;-48
2023/06/24 12:43:44;;;;;;;1778.53;996.58;;;;;;;27.89;35.63;101864.34;15782364;28;20066;-54
2023/06/24 12:51:17;;;;;;;980.22;882.00;;;;;;;27.25;40.06;101860.25;15777063;28;20551;-52
2023/06/24 12:58:51;;;;;;;1363.57;967.13;;;;;;;26.99;37.93;101863.28;15778536;28;20129;-50
2023/06/24 13:06:26;;;;;;;829.75;759.85;;;;;;;27.25;40.70;101860.25;15793382;28;20450;-50
2023/06/24 13:14:01;;;;;;;779.92;713.80;;;;;;;26.59;39.52;101854.38;15781071;28;20150;-51
2023/06/24 13:21:36;;;;;;;850.38;773.45;;;;;;;27.42;37.04;101855.06;15763870;28;20437;-54
2023/06/24 13:29:11;;;;;;;790.20;722.60;;;;;;;27.68;36.80;101852.75;15768369;28;20056;-50
2023/06/24 13:36:44;;;;;;;827.50;753.13;;;;;;;27.28;37.80;101848.59;15777856;28;20043;-52
2023/06/24 13:44:19;;;;;;;354.70;333.00;;;;;;;26.92;41.25;101849.84;15780454;28;20408;-49
2023/06/24 13:51:52;;;;;;;722.80;665.15;;;;;;;26.64;39.13;101845.22;15803672;28;20044;-48
2023/06/24 13:59:26;;;;;;;787.15;720.95;;;;;;;27.42;39.07;101842.09;15805948;28;20130;-51
2023/06/24 14:06:59;;;;;;;813.13;744.40;;;;;;;27.18;37.90;101827.50;15783341;28;20101;-49
2023/06/24 14:14:37;;;;;;;760.67;695.63;;;;;;;26.99;38.39;101821.94;15790102;28;20051;-48
2023/06/24 14:22:10;;;;;;;647.30;600.45;;;;;;;27.37;39.70;101822.00;15807701;28;20055;-51
2023/06/24 14:29:44;;;;;;;587.97;548.33;;;;;;;26.67;41.08;101828.94;15802725;28;20135;-48
2023/06/24 14:37:17;;;;;;;524.33;486.73;;;;;;;26.37;40.15;101827.28;15785842;28;20051;-48
2023/06/24 14:44:52;;;;;;;637.75;593.05;;;;;;;26.67;40.69;101815.16;15788776;28;20060;-52
2023/06/24 14:52:24;;;;;;;715.35;661.75;;;;;;;26.39;39.96;101808.56;15782451;28;20496;-52
2023/06/24 15:00:00;;;;;;;359.00;337.13;;;;;;;26.83;40.45;101801.22;15801246;28;20453;-51
2023/06/24 15:07:33;;;;;;;575.80;536.65;;;;;;;26.40;41.67;101801.13;15798547;28;20044;-48
2023/06/24 15:15:09;;;;;;;415.00;389.38;;;;;;;26.63;41.06;101802.28;15779983;28;20136;-47
2023/06/24 15:22:42;;;;;;;755.75;694.72;;;;;;;26.22;41.02;101790.84;15787438;28;20131;-46
2023/06/24 15:30:18;;;;;;;738.63;679.85;;;;;;;25.75;41.84;101792.31;15773925;28;20047;-57
2023/06/24 15:37:50;;;;;;;718.63;664.28;;;;;;;25.69;42.09;101794.25;15784000;28;20046;-56
2023/06/24 15:45:27;;;;;;;326.45;306.77;;;;;;;25.29;43.08;101789.88;15785238;28;20047;-56
2023/06/24 15:53:00;;;;;;;493.92;463.05;;;;;;;25.38;42.62;101793.66;15797944;28;20517;-59
2023/06/24 16:00:34;;;;;;;735.97;679.58;;;;;;;25.04;41.67;101786.13;15779339;28;20043;-51
2023/06/24 16:08:08;;;;;;;292.58;276.02;;;;;;;24.98;43.73;101791.91;15794745;28;20361;-53
2023/06/24 16:15:42;;;;;;;436.73;408.83;;;;;;;25.14;42.51;101777.03;15778949;28;20040;-54
2023/06/24 16:23:15;;;;;;;499.08;466.80;;;;;;;25.45;41.88;101789.47;15804197;28;20512;-56
2023/06/24 16:30:49;;;;;;;420.05;393.85;;;;;;;25.14;42.68;101783.34;15802303;28;20067;-57
2023/06/24 16:38:22;;;;;;;290.75;274.08;;;;;;;25.10;43.21;101782.28;15780791;28;20048;-53
2023/06/24 16:45:56;;;;;;;320.73;301.83;;;;;;;25.09;42.84;101777.88;15780542;28;20236;-57
2023/06/24 16:53:29;;;;;;;228.57;215.75;;;;;;;24.86;43.71;101779.34;15779728;28;20195;-54
2023/06/24 17:01:03;;;;;;;255.52;241.40;;;;;;;25.19;42.82;101782.50;15777096;28;20131;-56
2023/06/24 17:08:37;;;;;;;399.38;374.73;;;;;;;25.08;42.58;101772.66;15775487;28;20036;-57
2023/06/24 17:16:14;;;;;;;284.67;268.25;;;;;;;25.06;43.21;101770.16;15793004;28;20052;-58
2023/06/24 17:23:46;;;;;;;325.05;306.05;;;;;;;24.60;43.13;101772.28;15788261;28;20071;-57
2023/06/24 17:31:21;;;;;;;154.50;145.90;;;;;;;25.04;43.28;101764.16;15792326;28;20056;-54
2023/06/24 17:38:54;;;;;;;167.10;158.05;;;;;;;24.82;43.07;101760.94;15779823;28;20076;-50
2023/06/24 17:46:28;;;;;;;31.17;29.40;;;;;;;24.66;44.62;101771.97;15789208;28;20044;-55
2023/06/24 17:54:02;;;;;;;150.90;142.75;;;;;;;24.57;43.96;101762.66;15809003;28;20155;-53
2023/06/24 18:01:36;;;;;;;163.80;154.90;;;;;;;24.36;43.68;101766.56;15804334;28;20092;-51
2023/06/24 18:09:09;;;;;;;21.15;19.92;;;;;;;24.52;44.79;101762.69;15804295;28;20044;-54
2023/06/24 18:16:49;;;;;;;159.05;150.20;;;;;;;24.41;43.50;101759.16;15791771;28;20048;-55
2023/06/24 18:24:22;;;;;;;20.45;19.15;;;;;;;24.25;44.50;101760.28;15815661;28;20047;-58
2023/06/24 18:31:56;;;;;;;18.30;17.20;;;;;;;24.10;44.75;101757.53;15788282;28;20078;-51
2023/06/24 18:39:30;;;;;;;5.07;4.68;;;;;;;24.15;46.00;101752.03;15792252;28;20062;-57
2023/06/24 18:47:05;;;;;;;3.03;1.85;;;;;;;23.96;47.43;101750.97;15785339;28;20141;-55
2023/06/24 18:54:38;;;;;;;2.30;1.58;;;;;;;23.85;47.74;101758.38;15800961;28;20400;-56
2023/06/24 19:02:12;;;;;;;6.38;2.35;;;;;;;23.60;49.10;101757.25;15801468;28;20412;-55
2023/06/24 19:09:45;;;;;;;5.05;2.25;;;;;;;23.33;50.31;101754.75;15782320;28;20055;-54
2023/06/24 19:17:19;;;;;;;4.45;2.17;;;;;;;23.24;51.44;101756.38;15806389;28;20492;-57
2023/06/24 19:24:52;;;;;;;4.90;2.40;;;;;;;22.89;51.76;101757.88;15812562;28;20044;-57
2023/06/24 19:32:26;;;;;;;5.22;2.20;;;;;;;22.65;52.45;101757.50;15804053;28;20139;-57
2023/06/24 19:39:59;;;;;;;5.80;2.25;;;;;;;22.35;54.10;101760.06;15788927;28;20113;-54
2023/06/24 19:47:33;;;;;;;4.82;2.45;;;;;;;22.09;54.90;101737.97;15798022;28;20052;-57
2023/06/24 19:55:07;;;;;;;13.93;5.95;;;;;;;21.95;56.67;101763.31;15800685;28;20076;-54
2023/06/24 20:02:42;;;;;;;7.15;4.00;;;;;;;21.63;57.55;101773.13;15777799;28;20051;-57
2023/06/24 20:10:15;;;;;;;8.10;3.45;;;;;;;;;;15805248;28;20069;-55
2023/06/24 20:17:49;;;;;;;9.25;4.45;;;;;;;21.35;58.05;101763.31;15778980;28;20366;-51
2023/06/24 20:25:22;;;;;;;9.68;4.57;;;;;;;20.82;60.29;101770.31;15789854;28;20070;-53
2023/06/24 20:32:56;;;;;;;6.78;3.28;;;;;;;20.87;59.49;101758.63;15798654;28;20576;-54
2023/06/24 20:40:30;;;;;;;6.60;3.90;;;;;;;20.73;60.78;101760.91;15786033;28;20063;-57
2023/06/24 20:48:04;;;;;;;10.18;4.80;;;;;;;20.63;61.92;101756.16;15795862;28;20040;-56
2023/06/24 20:55:39;;;;;;;9.88;3.95;;;;;;;20.60;61.76;101751.19;15798652;28;20071;-55
2023/06/24 21:03:13;;;;;;;9.52;4.80;;;;;;;20.42;62.29;101746.00;15787356;28;20130;-53
2023/06/24 21:10:46;;;;;;;8.10;4.85;;;;;;;19.95;62.93;101705.50;15787701;28;20558;-56
2023/06/24 21:18:20;;;;;;;;;;;;;;;19.89;65.19;101747.41;15811524;28;20472;-52
2023/06/24 21:25:54;;;;;;;9.88;6.28;;;;;;;19.80;65.38;101738.81;15764401;28;19931;-53
2023/06/24 21:33:28;;;;;;;10.88;5.82;;;;;;;19.72;65.65;101749.28;15777571;22;20055;-49
2023/06/24 21:41:05;;;;;;;9.70;6.80;;;;;;;19.70;65.08;101732.38;15754382;28;20048;-52
2023/06/24 21:48:39;;;;;;;12.70;7.60;;;;;;;19.73;64.29;101737.34;15768407;28;20512;-51
2023/06/24 21:56:12;;;;;;;12.00;7.72;;;;;;;19.49;65.65;101750.22;15790201;28;20085;-54
2023/06/24 22:03:46;;;;;;;10.98;7.85;;;;;;;19.44;65.50;101741.94;15814095;28;20141;-53
2023/06/24 22:11:19;;;;;;;12.55;9.05;;;;;;;19.35;66.42;101746.97;15849162;28;20039;-51
2023/06/24 22:18:53;;;;;;;;;;;;;;;19.13;67.86;101746.84;15840860;28;20048;-53
2023/06/24 22:26:26;;;;;;;12.13;8.18;;;;;;;19.14;67.42;101750.38;15788279;28;20024;-50
2023/06/24 22:34:00;;;;;;;;;;;;;;;19.08;67.49;101752.19;15787846;28;20044;-49
2023/06/24 22:41:33;;;;;;;12.32;9.35;;;;;;;19.03;67.89;101749.38;15804221;28;19951;-51
2023/06/24 22:49:07;;;;;;;21.25;19.23;;;;;;;18.94;67.91;101742.66;15781855;28;20136;-51
2023/06/24 22:56:40;;;;;;;25.77;23.20;;;;;;;18.84;68.08;101748.72;15785661;28;20427;-51
2023/06/24 23:04:15;;;;;;;32.25;29.65;;;;;;;18.68;68.47;101752.13;15785398;28;20044;-49
2023/06/24 23:11:51;;;;;;;35.60;32.90;;;;;;;18.55;68.86;101748.59;15836685;28;20413;-51
2023/06/24 23:19:26;;;;;;;39.30;36.20;;;;;;;18.45;69.88;101745.66;15825751;28;20089;-49
2023/06/24 23:27:03;;;;;;;51.30;47.58;;;;;;;18.45;69.39;101744.84;15801631;28;20044;-48
2023/06/24 23:34:38;;;;;;;65.65;61.35;;;;;;;18.28;69.74;101742.84;15801514;28;20048;-53
2023/06/24 23:42:12;;;;;;;74.13;69.60;;;;;;;18.28;69.07;101742.84;15767253;28;20393;-50
2023/06/24 23:49:47;;;;;;;62.60;58.80;;;;;;;18.23;69.08;101733.72;15800316;28;20047;-50
2023/06/24 23:57:19;;;;;;;70.45;65.70;;;;;;;18.13;68.92;101728.06;15800793;28;20532;-52
